createdAt,value
2023-04-24T00:00:41.761Z,98703.53
2023-04-24T00:01:23.503Z,98683.19
2023-04-24T00:02:05.229Z,98688.66
2023-04-24T00:02:49.577Z,98702.44
2023-04-24T00:03:31.640Z,98686.78
2023-04-24T00:04:17.496Z,98692.25
2023-04-24T00:05:03.803Z,98702.81
2023-04-24T00:05:46.579Z,98700.72
2023-04-24T00:06:34.074Z,98687.53
2023-04-24T00:07:17.643Z,98689.16
2023-04-24T00:07:59.393Z,98696.31
2023-04-24T00:08:41.222Z,98640.91
2023-04-24T00:09:22.804Z,98687.16
2023-04-24T00:10:04.806Z,98708.34
2023-04-24T00:10:46.550Z,98682.97
2023-04-24T00:11:28.289Z,98700.94
2023-04-24T00:12:10.786Z,98696.44
2023-04-24T00:12:52.402Z,98684.66
2023-04-24T00:13:33.988Z,98692.31
2023-04-24T00:14:16.249Z,98687.44
2023-04-24T00:14:57.968Z,98696.75
2023-04-24T00:15:40.124Z,98684.78
2023-04-24T00:16:21.793Z,98693.88
2023-04-24T00:17:03.747Z,98694.66
2023-04-24T00:17:45.437Z,98687.72
2023-04-24T00:18:27.214Z,98661.22
2023-04-24T00:19:08.876Z,98633.19
2023-04-24T00:19:52.190Z,98670.41
2023-04-24T00:20:34.323Z,98685.25
2023-04-24T00:21:18.626Z,98672.75
2023-04-24T00:22:00.716Z,98674.16
2023-04-24T00:22:42.486Z,98661.41
2023-04-24T00:23:24.125Z,98679.31
2023-04-24T00:24:05.958Z,98621.41
2023-04-24T00:24:47.573Z,98674.56
2023-04-24T00:25:29.202Z,98621.47
2023-04-24T00:26:11.427Z,98677.09
2023-04-24T00:26:53.048Z,98652.59
2023-04-24T00:27:36.520Z,98689.03
2023-04-24T00:28:18.126Z,98681.22
2023-04-24T00:28:59.764Z,98624.78
2023-04-24T00:29:42.779Z,98659.22
2023-04-24T00:30:24.695Z,98679.00
2023-04-24T00:31:06.361Z,98687.25
2023-04-24T00:31:48.000Z,98692.56
2023-04-24T00:32:29.729Z,98671.03
2023-04-24T00:33:11.400Z,98687.84
2023-04-24T00:33:53.027Z,98663.66
2023-04-24T00:34:34.698Z,98686.59
2023-04-24T00:35:16.298Z,98689.84
2023-04-24T00:35:58.246Z,98693.75
2023-04-24T00:36:39.959Z,98692.56
2023-04-24T00:37:21.634Z,98680.31
2023-04-24T00:38:03.254Z,98680.03
2023-04-24T00:38:44.925Z,98694.66
2023-04-24T00:39:26.637Z,98697.91
2023-04-24T00:40:08.702Z,98672.16
2023-04-24T00:40:51.133Z,98700.09
2023-04-24T00:41:32.794Z,98678.56
2023-04-24T00:42:14.573Z,98676.50
2023-04-24T00:42:56.680Z,98698.50
2023-04-24T00:43:38.642Z,98655.34
2023-04-24T00:44:20.356Z,98686.41
2023-04-24T00:45:04.089Z,98693.13
2023-04-24T00:45:45.899Z,98694.38
2023-04-24T00:46:27.616Z,98698.06
2023-04-24T00:47:09.337Z,98663.38
2023-04-24T00:47:53.446Z,98695.28
2023-04-24T00:48:35.497Z,98689.59
2023-04-24T00:49:17.180Z,98688.19
2023-04-24T00:49:58.820Z,98695.88
2023-04-24T00:50:40.655Z,98666.03
2023-04-24T00:51:22.313Z,98686.00
2023-04-24T00:52:08.516Z,98694.47
2023-04-24T00:52:50.390Z,98685.47
2023-04-24T00:53:32.246Z,98692.31
2023-04-24T00:54:14.469Z,98689.44
2023-04-24T00:54:56.548Z,98693.59
2023-04-24T00:55:39.773Z,98667.19
2023-04-24T00:56:21.455Z,98689.31
2023-04-24T00:57:07.778Z,98684.47
2023-04-24T00:57:49.684Z,98693.13
2023-04-24T00:58:32.396Z,98687.00
2023-04-24T00:59:16.945Z,98687.00
2023-04-24T00:59:58.721Z,98673.78
2023-04-24T01:00:40.670Z,98670.91
2023-04-24T01:01:23.283Z,98687.13
2023-04-24T01:02:06.693Z,98678.78
2023-04-24T01:02:49.656Z,98682.97
2023-04-24T01:03:35.237Z,98664.25
2023-04-24T01:04:18.837Z,98680.09
2023-04-24T01:05:01.964Z,98681.50
2023-04-24T01:05:43.624Z,98681.72
2023-04-24T01:06:28.692Z,98687.41
2023-04-24T01:07:12.378Z,98683.56
2023-04-24T01:07:54.020Z,98675.25
2023-04-24T01:08:36.848Z,98684.25
2023-04-24T01:09:19.986Z,98688.38
2023-04-24T01:10:01.828Z,98661.75
2023-04-24T01:10:45.810Z,98677.38
2023-04-24T01:11:27.461Z,98678.41
2023-04-24T01:12:09.139Z,98666.97
2023-04-24T01:12:52.816Z,98677.59
2023-04-24T01:13:35.370Z,98674.94
2023-04-24T01:14:18.355Z,98675.63
2023-04-24T01:15:00.203Z,98678.53
2023-04-24T01:15:41.921Z,98678.16
2023-04-24T01:16:24.775Z,98667.00
2023-04-24T01:17:06.802Z,98680.44
2023-04-24T01:17:48.526Z,98676.03
2023-04-24T01:18:30.256Z,98673.97
2023-04-24T01:19:13.390Z,98679.50
2023-04-24T01:19:57.624Z,98674.25
2023-04-24T01:20:41.558Z,98673.59
2023-04-24T01:21:28.607Z,98674.03
2023-04-24T01:22:12.709Z,98680.75
2023-04-24T01:22:55.886Z,98675.06
2023-04-24T01:23:38.483Z,98678.31
2023-04-24T01:24:20.759Z,98682.59
2023-04-24T01:25:03.316Z,98674.19
2023-04-24T01:25:46.077Z,98660.38
2023-04-24T01:26:27.699Z,98682.75
2023-04-24T01:27:10.922Z,98672.13
2023-04-24T01:27:53.654Z,98656.91
2023-04-24T01:28:35.362Z,98666.25
2023-04-24T01:29:17.084Z,98685.41
2023-04-24T01:29:59.060Z,98667.53
2023-04-24T01:30:41.019Z,98677.88
2023-04-24T01:31:23.115Z,98675.44
2023-04-24T01:32:05.721Z,98671.75
2023-04-24T01:32:47.847Z,98667.53
2023-04-24T01:33:29.881Z,98680.31
2023-04-24T01:34:11.773Z,98665.44
2023-04-24T01:34:53.836Z,98675.44
2023-04-24T01:35:37.043Z,98675.00
2023-04-24T01:36:19.124Z,98678.25
2023-04-24T01:37:01.370Z,98673.75
2023-04-24T01:37:42.989Z,98676.75
2023-04-24T01:38:24.728Z,98670.59
2023-04-24T01:39:06.560Z,98672.97
2023-04-24T01:39:48.193Z,98675.16
2023-04-24T01:40:29.923Z,98674.13
2023-04-24T01:41:13.155Z,98670.09
2023-04-24T01:41:56.358Z,98672.97
2023-04-24T01:42:38.196Z,98664.41
2023-04-24T01:43:20.317Z,98679.00
2023-04-24T01:44:02.667Z,98661.88
2023-04-24T01:44:44.837Z,98639.09
2023-04-24T01:45:26.425Z,98669.34
2023-04-24T01:46:08.288Z,98666.16
2023-04-24T01:46:51.820Z,98676.13
2023-04-24T01:47:33.788Z,98655.47
2023-04-24T01:48:15.706Z,98666.03
2023-04-24T01:48:57.505Z,98647.59
2023-04-24T01:49:40.032Z,98666.31
2023-04-24T01:50:21.737Z,98646.41
2023-04-24T01:51:03.593Z,98676.16
2023-04-24T01:51:45.650Z,98657.19
2023-04-24T01:52:28.110Z,98659.75
2023-04-24T01:53:09.851Z,98652.53
2023-04-24T01:53:51.566Z,98657.78
2023-04-24T01:54:33.267Z,98663.66
2023-04-24T01:55:14.965Z,98644.34
2023-04-24T01:55:56.681Z,98641.53
2023-04-24T01:56:44.258Z,98658.94
2023-04-24T01:57:26.784Z,98657.69
2023-04-24T01:58:08.558Z,98647.81
2023-04-24T01:58:51.358Z,98653.72
2023-04-24T01:59:35.642Z,98659.16
2023-04-24T02:00:17.326Z,98650.47
2023-04-24T02:01:01.612Z,98661.00
2023-04-24T02:01:43.322Z,98629.31
2023-04-24T02:02:25.294Z,98649.56
2023-04-24T02:03:07.092Z,98620.75
2023-04-24T02:03:49.097Z,98651.94
2023-04-24T02:04:31.890Z,98654.38
2023-04-24T02:05:13.498Z,98651.50
2023-04-24T02:05:55.073Z,98617.41
2023-04-24T02:06:36.754Z,98647.00
2023-04-24T02:07:18.329Z,98645.38
2023-04-24T02:08:00.029Z,98633.88
2023-04-24T02:08:41.820Z,98645.59
2023-04-24T02:09:23.480Z,98653.56
2023-04-24T02:10:06.379Z,98620.66
2023-04-24T02:10:48.047Z,98649.34
2023-04-24T02:11:29.853Z,98654.22
2023-04-24T02:12:12.740Z,98655.25
2023-04-24T02:12:54.334Z,98541.72
2023-04-24T02:13:39.128Z,98654.66
2023-04-24T02:14:21.537Z,98637.56
2023-04-24T02:15:03.791Z,98642.06
2023-04-24T02:15:45.726Z,98640.50
2023-04-24T02:16:31.338Z,98646.19
2023-04-24T02:17:14.126Z,98651.28
2023-04-24T02:17:55.868Z,98646.63
2023-04-24T02:18:37.506Z,98648.63
2023-04-24T02:19:19.186Z,98640.38
2023-04-24T02:20:00.817Z,98621.84
2023-04-24T02:20:42.421Z,98655.56
2023-04-24T02:21:24.023Z,98626.50
2023-04-24T02:22:05.762Z,98633.13
2023-04-24T02:22:47.451Z,98635.66
2023-04-24T02:23:29.039Z,98649.81
2023-04-24T02:24:11.026Z,98658.59
2023-04-24T02:24:52.724Z,98640.72
2023-04-24T02:25:34.523Z,98656.16
2023-04-24T02:26:16.181Z,98647.91
2023-04-24T02:26:59.296Z,98661.91
2023-04-24T02:27:41.165Z,98639.78
2023-04-24T02:28:22.776Z,98651.72
2023-04-24T02:29:06.020Z,98636.75
2023-04-24T02:29:47.641Z,98633.50
2023-04-24T02:30:29.531Z,98640.44
2023-04-24T02:31:11.163Z,98601.50
2023-04-24T02:31:52.844Z,98657.13
2023-04-24T02:32:34.996Z,98646.44
2023-04-24T02:33:17.061Z,98655.56
2023-04-24T02:33:58.664Z,98640.59
2023-04-24T02:34:40.268Z,98633.91
2023-04-24T02:35:21.876Z,98651.75
2023-04-24T02:36:03.846Z,98630.44
2023-04-24T02:36:45.480Z,98641.41
2023-04-24T02:37:27.051Z,98646.28
2023-04-24T02:38:08.649Z,98646.50
2023-04-24T02:38:51.799Z,98645.47
2023-04-24T02:39:33.393Z,98643.25
2023-04-24T02:40:15.110Z,98635.59
2023-04-24T02:40:56.750Z,98640.59
2023-04-24T02:41:38.428Z,98630.13
2023-04-24T02:42:20.022Z,98643.47
2023-04-24T02:43:01.672Z,98654.56
2023-04-24T02:43:43.476Z,98649.69
2023-04-24T02:44:25.258Z,98652.19
2023-04-24T02:45:07.567Z,98643.91
2023-04-24T02:45:49.888Z,98649.22
2023-04-24T02:46:31.758Z,98639.50
2023-04-24T02:47:13.327Z,98643.78
2023-04-24T02:47:54.943Z,98638.13
2023-04-24T02:48:36.663Z,98659.25
2023-04-24T02:49:18.212Z,98642.22
2023-04-24T02:49:59.852Z,98647.47
2023-04-24T02:50:41.608Z,98618.19
2023-04-24T02:51:23.258Z,98654.41
2023-04-24T02:52:04.962Z,98657.63
2023-04-24T02:52:46.651Z,98654.84
2023-04-24T02:53:28.326Z,98662.28
2023-04-24T02:54:10.993Z,98659.41
2023-04-24T02:54:54.706Z,98652.84
2023-04-24T02:55:37.026Z,98639.41
2023-04-24T02:56:18.861Z,98654.84
2023-04-24T02:57:02.186Z,98654.03
2023-04-24T02:57:43.928Z,98664.66
2023-04-24T02:58:25.937Z,98649.75
2023-04-24T02:59:07.586Z,98656.69
2023-04-24T02:59:49.632Z,98655.44
2023-04-24T03:00:31.354Z,98640.75
2023-04-24T03:01:13.143Z,98635.22
2023-04-24T03:01:54.802Z,98600.53
2023-04-24T03:02:36.454Z,98643.34
2023-04-24T03:03:18.514Z,98638.09
2023-04-24T03:04:00.484Z,98652.34
2023-04-24T03:04:43.831Z,98631.22
2023-04-24T03:05:26.013Z,98589.09
2023-04-24T03:06:08.880Z,98636.16
2023-04-24T03:06:52.669Z,98640.41
2023-04-24T03:07:35.813Z,98662.66
2023-04-24T03:08:17.494Z,98632.56
2023-04-24T03:08:59.478Z,98644.50
2023-04-24T03:09:42.059Z,98652.69
2023-04-24T03:10:23.923Z,98637.88
2023-04-24T03:11:05.526Z,98653.50
2023-04-24T03:11:47.079Z,98653.28
2023-04-24T03:12:28.640Z,98650.63
2023-04-24T03:13:10.624Z,98648.38
2023-04-24T03:13:52.264Z,98648.72
2023-04-24T03:14:35.665Z,98625.75
2023-04-24T03:15:17.389Z,98646.31
2023-04-24T03:15:59.026Z,98649.75
2023-04-24T03:16:42.494Z,98642.84
2023-04-24T03:17:24.274Z,98641.41
2023-04-24T03:18:05.928Z,98649.19
2023-04-24T03:18:47.552Z,98652.84
2023-04-24T03:19:29.980Z,98653.06
2023-04-24T03:20:19.878Z,98651.44
2023-04-24T03:21:01.894Z,98625.47
2023-04-24T03:21:43.790Z,98651.44
2023-04-24T03:22:25.434Z,98660.00
2023-04-24T03:23:07.835Z,98651.88
2023-04-24T03:23:50.946Z,98658.16
2023-04-24T03:24:32.965Z,98656.75
2023-04-24T03:25:14.912Z,98663.53
2023-04-24T03:25:56.928Z,98674.81
2023-04-24T03:26:40.841Z,98669.56
2023-04-24T03:27:43.616Z,98662.06
2023-04-24T03:28:51.648Z,98682.72
2023-04-24T03:29:33.316Z,98682.78
2023-04-24T03:30:15.342Z,98686.28
2023-04-24T03:31:08.510Z,98678.44
2023-04-24T03:31:51.790Z,98689.88
2023-04-24T03:32:33.858Z,98683.94
2023-04-24T03:33:16.464Z,98690.06
2023-04-24T03:34:08.139Z,98683.81
2023-04-24T03:34:50.879Z,98698.84
2023-04-24T03:35:32.520Z,98692.38
2023-04-24T03:36:17.346Z,98644.03
2023-04-24T03:36:59.068Z,98680.66
2023-04-24T03:37:40.960Z,98670.88
2023-04-24T03:38:41.233Z,98692.88
2023-04-24T03:39:36.712Z,98701.44
2023-04-24T03:40:21.108Z,98683.19
2023-04-24T03:41:02.925Z,98705.97
2023-04-24T03:41:55.539Z,98693.16
2023-04-24T03:42:41.982Z,98655.59
2023-04-24T03:43:24.161Z,98685.50
2023-04-24T03:44:05.883Z,98708.66
2023-04-24T03:44:47.521Z,98693.84
2023-04-24T03:45:29.938Z,98727.22
2023-04-24T03:46:12.371Z,98736.41
2023-04-24T03:46:59.400Z,98741.13
2023-04-24T03:47:41.050Z,98760.91
2023-04-24T03:48:22.924Z,98745.06
2023-04-24T03:49:05.181Z,98757.91
2023-04-24T03:49:51.056Z,98745.53
2023-04-24T03:50:32.877Z,98757.13
2023-04-24T03:51:15.073Z,98760.81
2023-04-24T03:51:59.936Z,98766.75
2023-04-24T03:52:42.952Z,98763.13
2023-04-24T03:53:27.395Z,98742.78
2023-04-24T03:54:09.355Z,98773.53
2023-04-24T03:54:53.884Z,98777.03
2023-04-24T03:55:35.534Z,98772.53
2023-04-24T03:56:17.381Z,98770.31
2023-04-24T03:56:59.093Z,98723.88
2023-04-24T03:57:42.829Z,98763.00
2023-04-24T03:58:33.097Z,98774.00
2023-04-24T03:59:15.795Z,98755.28
2023-04-24T04:00:01.072Z,98760.59
2023-04-24T04:00:42.882Z,98737.56
2023-04-24T04:01:44.846Z,98759.75
2023-04-24T04:02:29.729Z,98755.28
2023-04-24T04:03:12.154Z,98749.78
2023-04-24T04:03:54.273Z,98754.44
2023-04-24T04:04:39.391Z,98762.81
2023-04-24T04:05:21.227Z,98759.97
2023-04-24T04:06:03.063Z,98740.00
2023-04-24T04:06:47.933Z,98754.47
2023-04-24T04:07:30.886Z,98765.66
2023-04-24T04:08:12.788Z,98769.31
2023-04-24T04:08:54.380Z,98745.09
2023-04-24T04:09:35.955Z,98756.50
2023-04-24T04:10:18.325Z,98775.63
2023-04-24T04:10:59.975Z,98774.00
2023-04-24T04:11:41.652Z,98781.53
2023-04-24T04:12:23.297Z,98782.97
2023-04-24T04:13:04.919Z,98784.19
2023-04-24T04:13:48.833Z,98783.78
2023-04-24T04:14:32.611Z,98770.78
2023-04-24T04:15:14.252Z,98791.13
2023-04-24T04:15:56.517Z,98791.13
2023-04-24T04:16:38.379Z,98794.59
2023-04-24T04:17:21.127Z,98787.88
2023-04-24T04:18:03.430Z,98786.44
2023-04-24T04:18:46.250Z,98793.97
2023-04-24T04:19:27.826Z,98788.06
2023-04-24T04:20:11.057Z,98789.06
2023-04-24T04:20:54.222Z,98793.56
2023-04-24T04:21:35.937Z,98787.44
2023-04-24T04:22:44.636Z,98809.63
2023-04-24T04:23:31.459Z,98790.91
2023-04-24T04:24:24.973Z,98796.00
2023-04-24T04:25:07.693Z,98798.66
2023-04-24T04:25:50.854Z,98785.63
2023-04-24T04:26:34.143Z,98798.06
2023-04-24T04:27:22.388Z,98800.50
2023-04-24T04:28:11.361Z,98804.97
2023-04-24T04:28:53.974Z,98799.25
2023-04-24T04:29:36.631Z,98812.50
2023-04-24T04:30:21.874Z,98809.25
2023-04-24T04:31:10.536Z,98787.25
2023-04-24T04:31:52.593Z,98795.81
2023-04-24T04:32:35.226Z,98808.22
2023-04-24T04:33:19.308Z,98799.69
2023-04-24T04:34:02.581Z,98741.47
2023-04-24T04:34:50.412Z,98791.53
2023-04-24T04:35:32.120Z,98806.59
2023-04-24T04:36:14.737Z,98816.38
2023-04-24T04:37:02.616Z,98796.63
2023-04-24T04:38:13.537Z,98801.72
2023-04-24T04:39:03.725Z,98801.28
2023-04-24T04:39:59.109Z,98819.41
2023-04-24T04:40:42.852Z,98810.88
2023-04-24T04:41:27.173Z,98818.00
2023-04-24T04:42:08.827Z,98821.47
2023-04-24T04:42:55.217Z,98827.16
2023-04-24T04:43:39.138Z,98808.63
2023-04-24T04:44:20.999Z,98832.88
2023-04-24T04:45:03.154Z,98829.81
2023-04-24T04:45:57.005Z,98835.09
2023-04-24T04:47:06.470Z,98834.91
2023-04-24T04:47:50.890Z,98835.91
2023-04-24T04:48:33.505Z,98811.47
2023-04-24T04:49:17.728Z,98829.78
2023-04-24T04:50:00.575Z,98836.72
2023-04-24T04:50:43.348Z,98824.09
2023-04-24T04:51:25.411Z,98829.81
2023-04-24T04:52:07.293Z,98837.13
2023-04-24T04:52:49.081Z,98844.66
2023-04-24T04:53:40.585Z,98817.16
2023-04-24T04:54:23.415Z,98818.41
2023-04-24T04:55:06.197Z,98836.09
2023-04-24T04:56:07.804Z,98835.06
2023-04-24T04:56:55.017Z,98810.44
2023-04-24T04:57:37.305Z,98839.16
2023-04-24T04:58:20.009Z,98845.03
2023-04-24T04:59:07.257Z,98829.16
2023-04-24T04:59:48.945Z,98842.22
2023-04-24T05:00:42.451Z,98844.03
2023-04-24T05:02:02.381Z,98845.25
2023-04-24T05:02:44.223Z,98844.44
2023-04-24T05:03:26.272Z,98851.34
2023-04-24T05:04:16.857Z,98798.34
2023-04-24T05:04:59.538Z,98817.09
2023-04-24T05:05:42.925Z,98806.53
2023-04-24T05:06:28.566Z,98859.06
2023-04-24T05:07:10.678Z,98849.50
2023-04-24T05:07:55.095Z,98858.25
2023-04-24T05:08:36.883Z,98847.03
2023-04-24T05:09:20.480Z,98851.31
2023-04-24T05:10:08.033Z,98854.59
2023-04-24T05:10:49.781Z,98851.09
2023-04-24T05:11:31.480Z,98833.78
2023-04-24T05:12:14.473Z,98843.97
2023-04-24T05:13:04.834Z,98848.44
2023-04-24T05:13:47.649Z,98846.19
2023-04-24T05:14:34.385Z,98849.28
2023-04-24T05:15:16.142Z,98846.22
2023-04-24T05:15:58.523Z,98842.56
2023-04-24T05:16:41.417Z,98833.19
2023-04-24T05:17:24.819Z,98844.44
2023-04-24T05:18:09.074Z,98846.25
2023-04-24T05:18:50.907Z,98814.84
2023-04-24T05:19:38.860Z,98857.84
2023-04-24T05:20:21.562Z,98792.25
2023-04-24T05:21:03.964Z,98846.47
2023-04-24T05:21:46.281Z,98841.94
2023-04-24T05:22:27.957Z,98838.72
2023-04-24T05:23:09.708Z,98849.09
2023-04-24T05:23:53.153Z,98822.00
2023-04-24T05:24:54.120Z,98834.44
2023-04-24T05:25:51.684Z,98794.69
2023-04-24T05:26:33.610Z,98838.28
2023-04-24T05:27:16.122Z,98796.34
2023-04-24T05:27:57.790Z,98851.13
2023-04-24T05:28:39.505Z,98848.88
2023-04-24T05:29:25.596Z,98847.28
2023-04-24T05:30:10.403Z,98826.28
2023-04-24T05:30:52.025Z,98855.81
2023-04-24T05:31:38.594Z,98835.84
2023-04-24T05:32:20.889Z,98833.44
2023-04-24T05:33:02.626Z,98838.28
2023-04-24T05:33:45.587Z,98868.03
2023-04-24T05:34:27.371Z,98868.66
2023-04-24T05:35:11.608Z,98863.38
2023-04-24T05:35:53.286Z,98844.00
2023-04-24T05:36:35.530Z,98830.78
2023-04-24T05:37:17.130Z,98862.97
2023-04-24T05:37:58.813Z,98868.88
2023-04-24T05:38:40.424Z,98799.63
2023-04-24T05:39:22.066Z,98857.88
2023-04-24T05:40:06.305Z,98870.53
2023-04-24T05:40:47.978Z,98850.75
2023-04-24T05:41:29.890Z,98869.31
2023-04-24T05:42:11.484Z,98873.78
2023-04-24T05:42:53.090Z,98871.75
2023-04-24T05:43:36.198Z,98879.50
2023-04-24T05:44:18.003Z,98870.72
2023-04-24T05:44:59.648Z,98865.44
2023-04-24T05:45:42.109Z,98860.56
2023-04-24T05:46:23.771Z,98870.72
2023-04-24T05:47:05.471Z,98871.34
2023-04-24T05:47:47.809Z,98843.81
2023-04-24T05:48:29.591Z,98882.34
2023-04-24T05:49:11.246Z,98896.00
2023-04-24T05:49:54.267Z,98882.75
2023-04-24T05:50:37.208Z,98859.53
2023-04-24T05:51:19.052Z,98883.63
2023-04-24T05:52:00.920Z,98880.78
2023-04-24T05:52:43.227Z,98859.13
2023-04-24T05:53:38.978Z,98871.38
2023-04-24T05:54:20.930Z,98893.38
2023-04-24T05:55:02.905Z,98867.53
2023-04-24T05:55:48.381Z,98888.69
2023-04-24T05:56:30.799Z,98891.34
2023-04-24T05:57:13.812Z,98879.72
2023-04-24T05:58:17.459Z,98890.94
2023-04-24T05:58:59.766Z,98872.19
2023-04-24T05:59:42.226Z,98868.94
2023-04-24T06:00:25.298Z,98889.91
2023-04-24T06:01:17.832Z,98877.47
2023-04-24T06:02:03.042Z,98883.16
2023-04-24T06:02:44.897Z,98878.28
2023-04-24T06:03:28.502Z,98879.09
2023-04-24T06:04:10.385Z,98875.22
2023-04-24T06:04:52.335Z,98877.22
2023-04-24T06:05:34.233Z,98873.75
2023-04-24T06:06:18.348Z,98879.25
2023-04-24T06:07:00.863Z,98881.06
2023-04-24T06:07:42.853Z,98879.84
2023-04-24T06:08:24.768Z,98881.06
2023-04-24T06:09:07.623Z,98875.97
2023-04-24T06:09:49.582Z,98881.84
2023-04-24T06:10:31.768Z,98873.28
2023-04-24T06:11:13.695Z,98884.91
2023-04-24T06:11:55.716Z,98876.09
2023-04-24T06:12:41.276Z,98841.06
2023-04-24T06:13:28.570Z,98869.56
2023-04-24T06:14:28.998Z,98865.88
2023-04-24T06:15:33.474Z,98867.88
2023-04-24T06:16:20.645Z,98877.06
2023-04-24T06:17:09.317Z,98879.31
2023-04-24T06:17:55.100Z,98878.44
2023-04-24T06:18:36.749Z,98877.81
2023-04-24T06:19:18.462Z,98856.63
2023-04-24T06:20:00.075Z,98881.22
2023-04-24T06:20:41.925Z,98864.28
2023-04-24T06:21:24.911Z,98836.59
2023-04-24T06:22:07.015Z,98879.50
2023-04-24T06:22:49.646Z,98878.66
2023-04-24T06:23:33.408Z,98871.16
2023-04-24T06:24:15.545Z,98873.97
2023-04-24T06:24:57.138Z,98889.00
2023-04-24T06:25:39.990Z,98875.72
2023-04-24T06:26:21.726Z,98877.06
2023-04-24T06:27:03.631Z,98879.63
2023-04-24T06:27:45.293Z,98878.03
2023-04-24T06:28:27.157Z,98876.88
2023-04-24T06:29:08.768Z,98832.56
2023-04-24T06:29:55.245Z,98856.22
2023-04-24T06:30:37.016Z,98868.97
2023-04-24T06:31:18.640Z,98877.97
2023-04-24T06:32:00.474Z,98886.47
2023-04-24T06:32:42.243Z,98895.44
2023-04-24T06:33:24.180Z,98883.22
2023-04-24T06:34:05.969Z,98890.19
2023-04-24T06:34:47.537Z,98869.22
2023-04-24T06:35:29.138Z,98881.69
2023-04-24T06:36:11.541Z,98877.47
2023-04-24T06:36:55.794Z,98883.81
2023-04-24T06:37:37.592Z,98882.06
2023-04-24T06:38:19.331Z,98884.91
2023-04-24T06:39:01.122Z,98878.81
2023-04-24T06:39:43.341Z,98884.09
2023-04-24T06:40:25.520Z,98821.97
2023-04-24T06:41:07.136Z,98855.38
2023-04-24T06:41:48.786Z,98881.22
2023-04-24T06:42:36.062Z,98872.44
2023-04-24T06:43:18.953Z,98881.16
2023-04-24T06:44:00.581Z,98879.72
2023-04-24T06:44:42.305Z,98882.59
2023-04-24T06:45:23.963Z,98835.00
2023-04-24T06:46:05.696Z,98890.00
2023-04-24T06:46:47.641Z,98863.53
2023-04-24T06:47:29.272Z,98892.09
2023-04-24T06:48:11.028Z,98884.94
2023-04-24T06:48:58.822Z,98883.97
2023-04-24T06:49:41.856Z,98881.47
2023-04-24T06:50:23.782Z,98896.78
2023-04-24T06:51:05.445Z,98887.78
2023-04-24T06:51:47.079Z,98839.44
2023-04-24T06:52:28.751Z,98888.31
2023-04-24T06:53:12.049Z,98893.41
2023-04-24T06:53:59.778Z,98888.31
2023-04-24T06:54:42.534Z,98889.19
2023-04-24T06:55:24.157Z,98891.84
2023-04-24T06:56:05.898Z,98891.28
2023-04-24T06:56:48.843Z,98896.00
2023-04-24T06:57:31.213Z,98892.13
2023-04-24T06:58:13.130Z,98891.03
2023-04-24T06:58:54.716Z,98904.91
2023-04-24T06:59:36.550Z,98903.88
2023-04-24T07:00:18.362Z,98851.75
2023-04-24T07:00:59.966Z,98895.25
2023-04-24T07:01:41.655Z,98901.13
2023-04-24T07:02:23.523Z,98881.34
2023-04-24T07:03:06.788Z,98913.59
2023-04-24T07:03:48.626Z,98899.50
2023-04-24T07:04:31.093Z,98904.44
2023-04-24T07:05:13.719Z,98907.75
2023-04-24T07:05:56.025Z,98899.13
2023-04-24T07:06:38.536Z,98907.50
2023-04-24T07:07:20.146Z,98895.91
2023-04-24T07:08:02.735Z,98880.22
2023-04-24T07:08:44.787Z,98891.25
2023-04-24T07:09:26.984Z,98890.38
2023-04-24T07:10:09.581Z,98908.19
2023-04-24T07:10:51.990Z,98899.44
2023-04-24T07:11:33.843Z,98901.25
2023-04-24T07:12:15.487Z,98892.66
2023-04-24T07:12:57.466Z,98904.69
2023-04-24T07:13:42.711Z,98883.53
2023-04-24T07:14:24.446Z,98886.81
2023-04-24T07:15:07.254Z,98896.97
2023-04-24T07:15:51.322Z,98892.72
2023-04-24T07:16:33.468Z,98846.50
2023-04-24T07:17:15.691Z,98898.38
2023-04-24T07:17:57.601Z,98906.50
2023-04-24T07:18:40.715Z,98886.94
2023-04-24T07:19:22.355Z,98911.75
2023-04-24T07:20:05.149Z,98907.47
2023-04-24T07:20:46.865Z,98915.03
2023-04-24T07:21:28.808Z,98910.13
2023-04-24T07:22:12.476Z,98913.78
2023-04-24T07:22:54.961Z,98901.13
2023-04-24T07:23:36.802Z,98905.38
2023-04-24T07:24:19.412Z,98911.25
2023-04-24T07:25:03.529Z,98918.63
2023-04-24T07:25:45.370Z,98903.78
2023-04-24T07:26:28.030Z,98909.72
2023-04-24T07:27:09.626Z,98910.91
2023-04-24T07:27:51.287Z,98909.34
2023-04-24T07:28:32.950Z,98915.06
2023-04-24T07:29:15.324Z,98914.81
2023-04-24T07:29:56.925Z,98917.47
2023-04-24T07:30:38.576Z,98925.16
2023-04-24T07:31:20.523Z,98914.59
2023-04-24T07:32:04.044Z,98926.66
2023-04-24T07:32:46.022Z,98938.69
2023-04-24T07:33:28.198Z,98933.75
2023-04-24T07:34:09.783Z,98923.31
2023-04-24T07:34:51.478Z,98923.25
2023-04-24T07:35:36.488Z,98944.09
2023-04-24T07:36:26.734Z,98951.50
2023-04-24T07:37:23.408Z,98939.16
2023-04-24T07:38:07.142Z,98940.25
2023-04-24T07:38:49.140Z,98937.59
2023-04-24T07:39:30.813Z,98942.16
2023-04-24T07:40:14.148Z,98929.72
2023-04-24T07:40:56.510Z,98939.13
2023-04-24T07:41:38.200Z,98935.69
2023-04-24T07:42:20.074Z,98933.38
2023-04-24T07:43:01.666Z,98941.25
2023-04-24T07:43:43.229Z,98933.41
2023-04-24T07:44:25.071Z,98941.56
2023-04-24T07:45:07.291Z,98946.31
2023-04-24T07:45:49.194Z,98940.75
2023-04-24T07:46:31.581Z,98943.84
2023-04-24T07:47:13.607Z,98938.19
2023-04-24T07:47:55.522Z,98953.38
2023-04-24T07:48:37.829Z,98925.53
2023-04-24T07:49:20.100Z,98960.66
2023-04-24T07:50:01.939Z,98855.16
2023-04-24T07:50:43.660Z,98955.78
2023-04-24T07:51:27.150Z,98954.03
2023-04-24T07:52:09.061Z,98955.06
2023-04-24T07:52:51.210Z,98940.84
2023-04-24T07:53:32.970Z,98932.31
2023-04-24T07:54:14.607Z,98942.13
2023-04-24T07:54:59.390Z,98932.19
2023-04-24T07:55:41.039Z,98957.91
2023-04-24T07:56:22.815Z,98958.72
2023-04-24T07:57:04.900Z,98955.09
2023-04-24T07:57:46.526Z,98939.41
2023-04-24T07:58:28.139Z,98949.41
2023-04-24T07:59:12.869Z,98973.03
2023-04-24T07:59:54.539Z,98979.78
2023-04-24T08:00:36.285Z,98960.63
2023-04-24T08:01:17.902Z,98946.38
2023-04-24T08:01:59.606Z,98980.81
2023-04-24T08:02:52.208Z,98980.41
2023-04-24T08:03:51.881Z,98957.38
2023-04-24T08:04:53.176Z,98961.66
2023-04-24T08:05:44.078Z,98982.84
2023-04-24T08:06:28.918Z,98993.66
2023-04-24T08:07:10.813Z,98990.00
2023-04-24T08:07:52.610Z,98994.47
2023-04-24T08:08:34.402Z,98992.22
2023-04-24T08:09:16.062Z,98994.06
2023-04-24T08:09:57.758Z,98990.81
2023-04-24T08:10:39.438Z,98999.34
2023-04-24T08:11:23.064Z,98998.56
2023-04-24T08:12:06.593Z,99007.50
2023-04-24T08:12:48.360Z,99006.28
2023-04-24T08:13:30.081Z,98998.13
2023-04-24T08:14:13.547Z,99006.31
2023-04-24T08:14:55.313Z,98995.09
2023-04-24T08:15:37.026Z,99008.56
2023-04-24T08:16:18.913Z,99006.31
2023-04-24T08:17:01.608Z,99001.78
2023-04-24T08:17:43.499Z,98978.53
2023-04-24T08:18:25.264Z,99014.41
2023-04-24T08:19:07.302Z,99008.06
2023-04-24T08:19:49.306Z,99010.50
2023-04-24T08:20:31.213Z,98962.44
2023-04-24T08:21:17.937Z,98984.84
2023-04-24T08:21:59.601Z,99004.81
2023-04-24T08:22:42.323Z,98997.63
2023-04-24T08:23:23.909Z,99005.16
2023-04-24T08:24:08.447Z,98997.44
2023-04-24T08:24:50.234Z,98997.63
2023-04-24T08:25:31.936Z,98994.13
2023-04-24T08:26:14.266Z,98997.75
2023-04-24T08:26:58.111Z,99004.47
2023-04-24T08:27:40.129Z,99003.53
2023-04-24T08:28:22.099Z,99002.22
2023-04-24T08:29:03.862Z,98994.25